sensor_id;sensor_type;location;lat;lon;timestamp;P1;durP1;ratioP1;P2;durP2;ratioP2
78916;SDS011;68315;48.608;11.436;2023-08-31T00:02:14;4.35;;;3.45;;
78916;SDS011;68315;48.608;11.436;2023-08-31T00:04:39;5.85;;;5.10;;
78916;SDS011;68315;48.608;11.436;2023-08-31T00:07:04;5.18;;;4.72;;
78916;SDS011;68315;48.608;11.436;2023-08-31T00:09:30;6.60;;;6.00;;
78916;SDS011;68315;48.608;11.436;2023-08-31T00:11:55;7.50;;;5.72;;
78916;SDS011;68315;48.608;11.436;2023-08-31T00:14:21;7.45;;;6.47;;
78916;SDS011;68315;48.608;11.436;2023-08-31T00:16:47;5.65;;;5.15;;
78916;SDS011;68315;48.608;11.436;2023-08-31T00:19:13;6.13;;;5.63;;
78916;SDS011;68315;48.608;11.436;2023-08-31T00:21:39;6.28;;;5.65;;
78916;SDS011;68315;48.608;11.436;2023-08-31T00:24:05;5.55;;;5.05;;
78916;SDS011;68315;48.608;11.436;2023-08-31T00:26:30;4.80;;;4.30;;
78916;SDS011;68315;48.608;11.436;2023-08-31T00:28:56;4.65;;;4.25;;
78916;SDS011;68315;48.608;11.436;2023-08-31T00:31:21;4.25;;;3.92;;
78916;SDS011;68315;48.608;11.436;2023-08-31T00:33:47;5.22;;;4.72;;
78916;SDS011;68315;48.608;11.436;2023-08-31T00:36:13;5.70;;;5.20;;
78916;SDS011;68315;48.608;11.436;2023-08-31T00:38:39;6.70;;;6.10;;
78916;SDS011;68315;48.608;11.436;2023-08-31T00:41:04;7.28;;;5.93;;
78916;SDS011;68315;48.608;11.436;2023-08-31T00:43:29;7.00;;;6.28;;
78916;SDS011;68315;48.608;11.436;2023-08-31T00:45:56;6.43;;;5.82;;
78916;SDS011;68315;48.608;11.436;2023-08-31T00:48:23;6.63;;;6.03;;
78916;SDS011;68315;48.608;11.436;2023-08-31T00:50:48;5.78;;;5.28;;
78916;SDS011;68315;48.608;11.436;2023-08-31T00:53:14;6.47;;;5.80;;
78916;SDS011;68315;48.608;11.436;2023-08-31T00:55:40;6.90;;;6.30;;
78916;SDS011;68315;48.608;11.436;2023-08-31T00:58:07;7.47;;;6.40;;
78916;SDS011;68315;48.608;11.436;2023-08-31T01:03:08;6.18;;;5.57;;
78916;SDS011;68315;48.608;11.436;2023-08-31T01:05:40;5.63;;;5.13;;
78916;SDS011;68315;48.608;11.436;2023-08-31T01:11:34;5.05;;;4.65;;
78916;SDS011;68315;48.608;11.436;2023-08-31T01:14:13;4.97;;;4.47;;
78916;SDS011;68315;48.608;11.436;2023-08-31T01:16:42;4.60;;;4.20;;
78916;SDS011;68315;48.608;11.436;2023-08-31T01:19:16;4.03;;;3.63;;
78916;SDS011;68315;48.608;11.436;2023-08-31T01:21:50;4.78;;;4.38;;
78916;SDS011;68315;48.608;11.436;2023-08-31T01:24:19;4.78;;;4.28;;
78916;SDS011;68315;48.608;11.436;2023-08-31T01:26:45;9.52;;;6.15;;
78916;SDS011;68315;48.608;11.436;2023-08-31T01:29:12;8.00;;;6.90;;
78916;SDS011;68315;48.608;11.436;2023-08-31T01:31:43;6.93;;;6.32;;
78916;SDS011;68315;48.608;11.436;2023-08-31T01:34:10;6.72;;;6.10;;
78916;SDS011;68315;48.608;11.436;2023-08-31T01:36:36;5.70;;;5.20;;
78916;SDS011;68315;48.608;11.436;2023-08-31T01:39:09;7.40;;;6.45;;
78916;SDS011;68315;48.608;11.436;2023-08-31T01:41:40;5.88;;;5.35;;
78916;SDS011;68315;48.608;11.436;2023-08-31T01:44:09;6.13;;;5.55;;
78916;SDS011;68315;48.608;11.436;2023-08-31T01:46:39;4.97;;;4.50;;
78916;SDS011;68315;48.608;11.436;2023-08-31T01:49:05;4.20;;;3.80;;
78916;SDS011;68315;48.608;11.436;2023-08-31T01:51:30;4.28;;;3.17;;
78916;SDS011;68315;48.608;11.436;2023-08-31T01:53:56;3.85;;;3.50;;
78916;SDS011;68315;48.608;11.436;2023-08-31T01:56:23;3.10;;;2.75;;
78916;SDS011;68315;48.608;11.436;2023-08-31T01:58:48;3.10;;;2.80;;
78916;SDS011;68315;48.608;11.436;2023-08-31T02:01:14;3.63;;;3.08;;
78916;SDS011;68315;48.608;11.436;2023-08-31T02:03:39;2.60;;;2.25;;
78916;SDS011;68315;48.608;11.436;2023-08-31T02:06:04;2.75;;;2.45;;
78916;SDS011;68315;48.608;11.436;2023-08-31T02:08:29;2.17;;;2.00;;
78916;SDS011;68315;48.608;11.436;2023-08-31T02:10:55;2.63;;;2.42;;
78916;SDS011;68315;48.608;11.436;2023-08-31T02:13:20;2.38;;;2.17;;
78916;SDS011;68315;48.608;11.436;2023-08-31T02:15:45;3.08;;;2.78;;
78916;SDS011;68315;48.608;11.436;2023-08-31T02:18:10;2.97;;;2.33;;
78916;SDS011;68315;48.608;11.436;2023-08-31T02:20:36;3.72;;;2.92;;
78916;SDS011;68315;48.608;11.436;2023-08-31T02:23:01;3.15;;;2.85;;
78916;SDS011;68315;48.608;11.436;2023-08-31T02:25:26;3.15;;;2.85;;
78916;SDS011;68315;48.608;11.436;2023-08-31T02:27:53;3.28;;;3.05;;
78916;SDS011;68315;48.608;11.436;2023-08-31T02:30:19;2.88;;;2.67;;
78916;SDS011;68315;48.608;11.436;2023-08-31T02:32:44;2.97;;;2.78;;
78916;SDS011;68315;48.608;11.436;2023-08-31T02:35:09;3.53;;;3.22;;
78916;SDS011;68315;48.608;11.436;2023-08-31T02:37:34;2.85;;;2.65;;
78916;SDS011;68315;48.608;11.436;2023-08-31T02:39:59;3.95;;;3.60;;
78916;SDS011;68315;48.608;11.436;2023-08-31T02:42:25;5.85;;;3.33;;
78916;SDS011;68315;48.608;11.436;2023-08-31T02:44:53;3.40;;;3.10;;
78916;SDS011;68315;48.608;11.436;2023-08-31T02:47:19;4.07;;;3.33;;
78916;SDS011;68315;48.608;11.436;2023-08-31T02:49:44;4.07;;;3.67;;
78916;SDS011;68315;48.608;11.436;2023-08-31T02:52:09;4.43;;;3.92;;
78916;SDS011;68315;48.608;11.436;2023-08-31T02:54:34;5.35;;;4.93;;
78916;SDS011;68315;48.608;11.436;2023-08-31T02:57:00;6.25;;;5.38;;
78916;SDS011;68315;48.608;11.436;2023-08-31T02:59:25;6.03;;;4.60;;
78916;SDS011;68315;48.608;11.436;2023-08-31T03:01:50;6.20;;;5.03;;
78916;SDS011;68315;48.608;11.436;2023-08-31T03:04:16;5.43;;;4.80;;
78916;SDS011;68315;48.608;11.436;2023-08-31T03:06:42;6.63;;;5.97;;
78916;SDS011;68315;48.608;11.436;2023-08-31T03:09:07;5.72;;;5.20;;
78916;SDS011;68315;48.608;11.436;2023-08-31T03:11:33;7.47;;;6.68;;
78916;SDS011;68315;48.608;11.436;2023-08-31T03:13:58;9.25;;;6.60;;
78916;SDS011;68315;48.608;11.436;2023-08-31T03:16:23;7.43;;;6.70;;
78916;SDS011;68315;48.608;11.436;2023-08-31T03:18:49;7.32;;;6.63;;
78916;SDS011;68315;48.608;11.436;2023-08-31T03:21:14;8.40;;;7.20;;
78916;SDS011;68315;48.608;11.436;2023-08-31T03:23:39;7.53;;;6.75;;
78916;SDS011;68315;48.608;11.436;2023-08-31T03:26:08;9.90;;;7.63;;
78916;SDS011;68315;48.608;11.436;2023-08-31T03:28:34;8.70;;;6.65;;
78916;SDS011;68315;48.608;11.436;2023-08-31T03:30:59;7.80;;;7.00;;
78916;SDS011;68315;48.608;11.436;2023-08-31T03:33:24;7.93;;;7.13;;
78916;SDS011;68315;48.608;11.436;2023-08-31T03:35:50;9.23;;;6.82;;
78916;SDS011;68315;48.608;11.436;2023-08-31T03:38:15;7.07;;;6.38;;
78916;SDS011;68315;48.608;11.436;2023-08-31T03:40:40;7.40;;;6.70;;
78916;SDS011;68315;48.608;11.436;2023-08-31T03:43:06;7.93;;;6.93;;
78916;SDS011;68315;48.608;11.436;2023-08-31T03:45:31;7.50;;;6.78;;
78916;SDS011;68315;48.608;11.436;2023-08-31T03:47:56;6.60;;;6.00;;
78916;SDS011;68315;48.608;11.436;2023-08-31T03:50:22;6.63;;;6.03;;
78916;SDS011;68315;48.608;11.436;2023-08-31T03:52:47;6.35;;;5.65;;
78916;SDS011;68315;48.608;11.436;2023-08-31T03:55:12;6.35;;;5.57;;
78916;SDS011;68315;48.608;11.436;2023-08-31T03:57:37;6.47;;;5.75;;
78916;SDS011;68315;48.608;11.436;2023-08-31T04:00:03;5.35;;;4.63;;
78916;SDS011;68315;48.608;11.436;2023-08-31T04:02:33;6.07;;;5.35;;
78916;SDS011;68315;48.608;11.436;2023-08-31T04:04:59;6.13;;;5.30;;
78916;SDS011;68315;48.608;11.436;2023-08-31T04:07:24;5.15;;;4.38;;
78916;SDS011;68315;48.608;11.436;2023-08-31T04:09:50;8.70;;;5.80;;
78916;SDS011;68315;48.608;11.436;2023-08-31T04:12:15;5.90;;;5.22;;
78916;SDS011;68315;48.608;11.436;2023-08-31T04:14:40;5.65;;;5.10;;
78916;SDS011;68315;48.608;11.436;2023-08-31T04:17:05;6.25;;;5.57;;
78916;SDS011;68315;48.608;11.436;2023-08-31T04:19:30;6.13;;;5.25;;
78916;SDS011;68315;48.608;11.436;2023-08-31T04:21:56;5.28;;;4.70;;
78916;SDS011;68315;48.608;11.436;2023-08-31T04:24:21;5.93;;;5.07;;
78916;SDS011;68315;48.608;11.436;2023-08-31T04:26:46;5.07;;;4.57;;
78916;SDS011;68315;48.608;11.436;2023-08-31T04:29:14;5.97;;;5.22;;
78916;SDS011;68315;48.608;11.436;2023-08-31T04:31:39;7.28;;;5.43;;
78916;SDS011;68315;48.608;11.436;2023-08-31T04:34:04;7.15;;;5.00;;
78916;SDS011;68315;48.608;11.436;2023-08-31T04:36:30;5.03;;;4.53;;
78916;SDS011;68315;48.608;11.436;2023-08-31T04:38:55;4.95;;;4.45;;
78916;SDS011;68315;48.608;11.436;2023-08-31T04:41:20;5.20;;;4.70;;
78916;SDS011;68315;48.608;11.436;2023-08-31T04:43:46;5.85;;;5.20;;
78916;SDS011;68315;48.608;11.436;2023-08-31T04:46:13;5.63;;;4.65;;
78916;SDS011;68315;48.608;11.436;2023-08-31T04:48:38;5.22;;;4.53;;
78916;SDS011;68315;48.608;11.436;2023-08-31T04:51:04;6.22;;;5.53;;
78916;SDS011;68315;48.608;11.436;2023-08-31T04:53:30;6.75;;;5.65;;
78916;SDS011;68315;48.608;11.436;2023-08-31T04:55:55;5.90;;;5.40;;
78916;SDS011;68315;48.608;11.436;2023-08-31T04:58:20;4.90;;;4.40;;
78916;SDS011;68315;48.608;11.436;2023-08-31T05:00:46;7.63;;;5.18;;
78916;SDS011;68315;48.608;11.436;2023-08-31T05:03:12;6.00;;;5.35;;
78916;SDS011;68315;48.608;11.436;2023-08-31T05:05:37;5.30;;;4.75;;
78916;SDS011;68315;48.608;11.436;2023-08-31T05:08:02;6.57;;;5.20;;
78916;SDS011;68315;48.608;11.436;2023-08-31T05:10:28;5.03;;;4.53;;
78916;SDS011;68315;48.608;11.436;2023-08-31T05:12:53;6.00;;;4.90;;
78916;SDS011;68315;48.608;11.436;2023-08-31T05:15:19;4.82;;;4.43;;
78916;SDS011;68315;48.608;11.436;2023-08-31T05:17:44;5.63;;;4.97;;
78916;SDS011;68315;48.608;11.436;2023-08-31T05:20:09;7.20;;;5.90;;
78916;SDS011;68315;48.608;11.436;2023-08-31T05:22:35;6.82;;;5.88;;
78916;SDS011;68315;48.608;11.436;2023-08-31T05:25:01;6.18;;;5.57;;
78916;SDS011;68315;48.608;11.436;2023-08-31T05:27:26;5.55;;;5.05;;
78916;SDS011;68315;48.608;11.436;2023-08-31T05:29:51;8.00;;;5.15;;
78916;SDS011;68315;48.608;11.436;2023-08-31T05:32:16;5.50;;;4.93;;
78916;SDS011;68315;48.608;11.436;2023-08-31T05:34:42;7.70;;;6.22;;
78916;SDS011;68315;48.608;11.436;2023-08-31T05:37:07;7.60;;;5.72;;
78916;SDS011;68315;48.608;11.436;2023-08-31T05:39:32;7.03;;;6.32;;
78916;SDS011;68315;48.608;11.436;2023-08-31T05:41:58;7.18;;;6.45;;
78916;SDS011;68315;48.608;11.436;2023-08-31T05:44:23;8.68;;;7.13;;
78916;SDS011;68315;48.608;11.436;2023-08-31T05:46:48;8.93;;;6.70;;
78916;SDS011;68315;48.608;11.436;2023-08-31T05:49:13;8.25;;;6.35;;
78916;SDS011;68315;48.608;11.436;2023-08-31T05:51:39;6.60;;;6.00;;
78916;SDS011;68315;48.608;11.436;2023-08-31T05:54:04;7.35;;;6.20;;
78916;SDS011;68315;48.608;11.436;2023-08-31T05:56:30;7.28;;;6.55;;
78916;SDS011;68315;48.608;11.436;2023-08-31T05:58:55;6.32;;;5.70;;
78916;SDS011;68315;48.608;11.436;2023-08-31T06:01:21;6.82;;;5.65;;
78916;SDS011;68315;48.608;11.436;2023-08-31T06:03:49;7.13;;;5.38;;
78916;SDS011;68315;48.608;11.436;2023-08-31T06:06:14;8.38;;;6.00;;
78916;SDS011;68315;48.608;11.436;2023-08-31T06:08:40;5.78;;;5.10;;
78916;SDS011;68315;48.608;11.436;2023-08-31T06:11:07;8.52;;;4.90;;
78916;SDS011;68315;48.608;11.436;2023-08-31T06:13:32;5.72;;;5.03;;
78916;SDS011;68315;48.608;11.436;2023-08-31T06:15:58;8.50;;;5.80;;
78916;SDS011;68315;48.608;11.436;2023-08-31T06:18:24;7.32;;;5.68;;
78916;SDS011;68315;48.608;11.436;2023-08-31T06:20:50;6.10;;;5.05;;
78916;SDS011;68315;48.608;11.436;2023-08-31T06:23:15;6.30;;;5.45;;
78916;SDS011;68315;48.608;11.436;2023-08-31T06:25:41;6.82;;;5.72;;
78916;SDS011;68315;48.608;11.436;2023-08-31T06:28:06;6.72;;;6.00;;
78916;SDS011;68315;48.608;11.436;2023-08-31T06:30:34;7.97;;;5.38;;
78916;SDS011;68315;48.608;11.436;2023-08-31T06:32:59;8.13;;;5.35;;
78916;SDS011;68315;48.608;11.436;2023-08-31T06:35:24;7.00;;;5.15;;
78916;SDS011;68315;48.608;11.436;2023-08-31T06:37:50;5.78;;;5.05;;
78916;SDS011;68315;48.608;11.436;2023-08-31T06:40:15;5.80;;;5.22;;
78916;SDS011;68315;48.608;11.436;2023-08-31T06:42:40;4.78;;;4.28;;
78916;SDS011;68315;48.608;11.436;2023-08-31T06:45:06;4.85;;;4.30;;
78916;SDS011;68315;48.608;11.436;2023-08-31T06:47:33;4.90;;;4.10;;
78916;SDS011;68315;48.608;11.436;2023-08-31T06:49:59;7.65;;;5.50;;
78916;SDS011;68315;48.608;11.436;2023-08-31T06:52:25;6.13;;;5.47;;
78916;SDS011;68315;48.608;11.436;2023-08-31T06:54:50;5.50;;;4.75;;
78916;SDS011;68315;48.608;11.436;2023-08-31T06:57:20;4.93;;;4.38;;
78916;SDS011;68315;48.608;11.436;2023-08-31T06:59:45;5.25;;;4.47;;
78916;SDS011;68315;48.608;11.436;2023-08-31T07:02:12;6.40;;;5.18;;
78916;SDS011;68315;48.608;11.436;2023-08-31T07:04:37;6.18;;;4.78;;
78916;SDS011;68315;48.608;11.436;2023-08-31T07:07:02;6.72;;;5.18;;
78916;SDS011;68315;48.608;11.436;2023-08-31T07:09:28;6.72;;;5.80;;
78916;SDS011;68315;48.608;11.436;2023-08-31T07:11:53;8.50;;;5.45;;
78916;SDS011;68315;48.608;11.436;2023-08-31T07:14:18;5.30;;;4.53;;
78916;SDS011;68315;48.608;11.436;2023-08-31T07:16:43;5.88;;;5.00;;
78916;SDS011;68315;48.608;11.436;2023-08-31T07:19:08;7.43;;;4.57;;
78916;SDS011;68315;48.608;11.436;2023-08-31T07:21:34;5.20;;;4.70;;
78916;SDS011;68315;48.608;11.436;2023-08-31T07:23:59;6.40;;;4.70;;
78916;SDS011;68315;48.608;11.436;2023-08-31T07:26:26;6.60;;;4.80;;
78916;SDS011;68315;48.608;11.436;2023-08-31T07:28:53;6.47;;;4.40;;
78916;SDS011;68315;48.608;11.436;2023-08-31T07:31:19;6.43;;;4.72;;
78916;SDS011;68315;48.608;11.436;2023-08-31T07:33:44;6.15;;;4.40;;
78916;SDS011;68315;48.608;11.436;2023-08-31T07:36:10;4.82;;;3.42;;
78916;SDS011;68315;48.608;11.436;2023-08-31T07:38:35;4.63;;;4.05;;
78916;SDS011;68315;48.608;11.436;2023-08-31T07:41:00;7.05;;;3.63;;
78916;SDS011;68315;48.608;11.436;2023-08-31T07:43:26;5.38;;;3.95;;
78916;SDS011;68315;48.608;11.436;2023-08-31T07:45:54;3.53;;;3.05;;
78916;SDS011;68315;48.608;11.436;2023-08-31T07:48:19;5.05;;;4.05;;
78916;SDS011;68315;48.608;11.436;2023-08-31T07:50:45;5.47;;;3.78;;
78916;SDS011;68315;48.608;11.436;2023-08-31T07:53:14;7.03;;;4.88;;
78916;SDS011;68315;48.608;11.436;2023-08-31T07:55:39;7.75;;;4.13;;
78916;SDS011;68315;48.608;11.436;2023-08-31T07:58:05;6.25;;;3.95;;
78916;SDS011;68315;48.608;11.436;2023-08-31T08:00:30;5.05;;;3.40;;
78916;SDS011;68315;48.608;11.436;2023-08-31T08:02:55;7.20;;;3.75;;
78916;SDS011;68315;48.608;11.436;2023-08-31T08:05:20;6.38;;;4.13;;
78916;SDS011;68315;48.608;11.436;2023-08-31T08:07:46;6.45;;;3.53;;
78916;SDS011;68315;48.608;11.436;2023-08-31T08:10:12;5.60;;;3.22;;
78916;SDS011;68315;48.608;11.436;2023-08-31T08:12:38;4.70;;;2.70;;
78916;SDS011;68315;48.608;11.436;2023-08-31T08:15:04;6.80;;;3.40;;
78916;SDS011;68315;48.608;11.436;2023-08-31T08:17:32;5.80;;;2.95;;
78916;SDS011;68315;48.608;11.436;2023-08-31T08:19:57;5.47;;;2.88;;
78916;SDS011;68315;48.608;11.436;2023-08-31T08:22:24;5.32;;;3.15;;
78916;SDS011;68315;48.608;11.436;2023-08-31T08:24:49;4.00;;;2.58;;
78916;SDS011;68315;48.608;11.436;2023-08-31T08:27:14;2.80;;;2.33;;
78916;SDS011;68315;48.608;11.436;2023-08-31T08:29:41;3.50;;;2.15;;
78916;SDS011;68315;48.608;11.436;2023-08-31T08:32:06;5.70;;;2.90;;
78916;SDS011;68315;48.608;11.436;2023-08-31T08:34:33;4.32;;;2.83;;
78916;SDS011;68315;48.608;11.436;2023-08-31T08:36:59;3.08;;;2.17;;
78916;SDS011;68315;48.608;11.436;2023-08-31T08:39:24;3.17;;;2.30;;
78916;SDS011;68315;48.608;11.436;2023-08-31T08:41:49;4.00;;;2.63;;
78916;SDS011;68315;48.608;11.436;2023-08-31T08:44:15;5.07;;;2.80;;
78916;SDS011;68315;48.608;11.436;2023-08-31T08:46:41;2.78;;;2.25;;
78916;SDS011;68315;48.608;11.436;2023-08-31T08:49:07;3.03;;;1.98;;
78916;SDS011;68315;48.608;11.436;2023-08-31T08:51:33;3.97;;;2.42;;
78916;SDS011;68315;48.608;11.436;2023-08-31T08:53:59;3.42;;;2.60;;
78916;SDS011;68315;48.608;11.436;2023-08-31T08:56:25;4.53;;;2.78;;
78916;SDS011;68315;48.608;11.436;2023-08-31T08:58:51;5.07;;;3.30;;
78916;SDS011;68315;48.608;11.436;2023-08-31T09:01:16;5.05;;;3.17;;
78916;SDS011;68315;48.608;11.436;2023-08-31T09:03:43;4.43;;;2.85;;
78916;SDS011;68315;48.608;11.436;2023-08-31T09:06:08;3.83;;;2.38;;
78916;SDS011;68315;48.608;11.436;2023-08-31T09:08:35;3.13;;;2.17;;
78916;SDS011;68315;48.608;11.436;2023-08-31T09:11:02;3.15;;;2.58;;
78916;SDS011;68315;48.608;11.436;2023-08-31T09:13:28;5.18;;;2.25;;
78916;SDS011;68315;48.608;11.436;2023-08-31T09:15:54;3.92;;;2.53;;
78916;SDS011;68315;48.608;11.436;2023-08-31T09:18:27;4.40;;;2.58;;
78916;SDS011;68315;48.608;11.436;2023-08-31T09:20:56;4.53;;;2.17;;
78916;SDS011;68315;48.608;11.436;2023-08-31T09:23:22;6.28;;;2.80;;
78916;SDS011;68315;48.608;11.436;2023-08-31T09:25:49;4.40;;;2.38;;
78916;SDS011;68315;48.608;11.436;2023-08-31T09:28:19;4.35;;;2.50;;
78916;SDS011;68315;48.608;11.436;2023-08-31T09:30:46;5.80;;;2.60;;
78916;SDS011;68315;48.608;11.436;2023-08-31T09:33:17;4.88;;;2.60;;
78916;SDS011;68315;48.608;11.436;2023-08-31T09:35:50;3.80;;;2.40;;
78916;SDS011;68315;48.608;11.436;2023-08-31T09:38:17;4.43;;;2.50;;
78916;SDS011;68315;48.608;11.436;2023-08-31T09:40:43;4.60;;;2.85;;
78916;SDS011;68315;48.608;11.436;2023-08-31T09:43:09;4.35;;;2.38;;
78916;SDS011;68315;48.608;11.436;2023-08-31T09:45:34;4.70;;;2.30;;
78916;SDS011;68315;48.608;11.436;2023-08-31T09:48:01;4.75;;;2.63;;
78916;SDS011;68315;48.608;11.436;2023-08-31T09:50:31;6.03;;;2.05;;
78916;SDS011;68315;48.608;11.436;2023-08-31T09:53:01;5.50;;;2.65;;
78916;SDS011;68315;48.608;11.436;2023-08-31T09:55:32;5.63;;;2.05;;
78916;SDS011;68315;48.608;11.436;2023-08-31T09:57:59;4.25;;;2.10;;
78916;SDS011;68315;48.608;11.436;2023-08-31T10:00:26;3.78;;;2.15;;
78916;SDS011;68315;48.608;11.436;2023-08-31T10:02:53;5.32;;;2.45;;
78916;SDS011;68315;48.608;11.436;2023-08-31T10:05:20;3.67;;;1.85;;
78916;SDS011;68315;48.608;11.436;2023-08-31T10:07:46;3.88;;;2.10;;
78916;SDS011;68315;48.608;11.436;2023-08-31T10:10:12;6.20;;;2.20;;
78916;SDS011;68315;48.608;11.436;2023-08-31T10:12:39;3.63;;;1.95;;
78916;SDS011;68315;48.608;11.436;2023-08-31T10:15:05;4.40;;;2.30;;
78916;SDS011;68315;48.608;11.436;2023-08-31T10:17:31;3.42;;;1.90;;
78916;SDS011;68315;48.608;11.436;2023-08-31T10:19:57;4.47;;;2.40;;
78916;SDS011;68315;48.608;11.436;2023-08-31T10:22:22;3.83;;;1.80;;
78916;SDS011;68315;48.608;11.436;2023-08-31T10:25:04;3.47;;;1.70;;
78916;SDS011;68315;48.608;11.436;2023-08-31T10:27:39;3.20;;;2.10;;
78916;SDS011;68315;48.608;11.436;2023-08-31T10:30:47;4.40;;;2.35;;
78916;SDS011;68315;48.608;11.436;2023-08-31T10:38:15;3.03;;;1.60;;
78916;SDS011;68315;48.608;11.436;2023-08-31T10:43:44;3.45;;;1.75;;
78916;SDS011;68315;48.608;11.436;2023-08-31T10:46:34;4.15;;;2.20;;
78916;SDS011;68315;48.608;11.436;2023-08-31T10:51:40;3.28;;;1.70;;
78916;SDS011;68315;48.608;11.436;2023-08-31T10:54:22;2.70;;;1.65;;
78916;SDS011;68315;48.608;11.436;2023-08-31T10:59:18;2.72;;;1.60;;
78916;SDS011;68315;48.608;11.436;2023-08-31T11:01:53;4.93;;;2.17;;
78916;SDS011;68315;48.608;11.436;2023-08-31T11:04:21;3.15;;;1.92;;
78916;SDS011;68315;48.608;11.436;2023-08-31T11:06:47;4.60;;;2.20;;
78916;SDS011;68315;48.608;11.436;2023-08-31T11:09:17;3.47;;;2.33;;
78916;SDS011;68315;48.608;11.436;2023-08-31T11:11:44;4.68;;;2.10;;
78916;SDS011;68315;48.608;11.436;2023-08-31T11:14:10;5.03;;;1.95;;
78916;SDS011;68315;48.608;11.436;2023-08-31T11:16:37;3.50;;;1.90;;
78916;SDS011;68315;48.608;11.436;2023-08-31T11:19:03;2.58;;;1.80;;
78916;SDS011;68315;48.608;11.436;2023-08-31T11:21:29;5.78;;;2.10;;
78916;SDS011;68315;48.608;11.436;2023-08-31T11:23:56;7.15;;;2.10;;
78916;SDS011;68315;48.608;11.436;2023-08-31T11:26:23;5.10;;;2.70;;
78916;SDS011;68315;48.608;11.436;2023-08-31T11:28:49;4.30;;;1.98;;
78916;SDS011;68315;48.608;11.436;2023-08-31T11:31:22;3.03;;;1.65;;
78916;SDS011;68315;48.608;11.436;2023-08-31T11:33:48;3.17;;;2.40;;
78916;SDS011;68315;48.608;11.436;2023-08-31T11:36:13;3.50;;;2.10;;
78916;SDS011;68315;48.608;11.436;2023-08-31T11:38:42;5.97;;;2.22;;
78916;SDS011;68315;48.608;11.436;2023-08-31T11:41:08;6.63;;;2.10;;
78916;SDS011;68315;48.608;11.436;2023-08-31T11:43:33;5.63;;;2.35;;
78916;SDS011;68315;48.608;11.436;2023-08-31T11:45:59;5.60;;;2.65;;
78916;SDS011;68315;48.608;11.436;2023-08-31T11:48:24;4.47;;;2.58;;
78916;SDS011;68315;48.608;11.436;2023-08-31T11:50:50;4.70;;;2.38;;
78916;SDS011;68315;48.608;11.436;2023-08-31T11:53:17;5.35;;;2.50;;
78916;SDS011;68315;48.608;11.436;2023-08-31T11:55:50;4.85;;;2.30;;
78916;SDS011;68315;48.608;11.436;2023-08-31T11:58:16;4.93;;;2.20;;
78916;SDS011;68315;48.608;11.436;2023-08-31T12:00:42;5.70;;;2.30;;
78916;SDS011;68315;48.608;11.436;2023-08-31T12:03:08;3.47;;;2.15;;
78916;SDS011;68315;48.608;11.436;2023-08-31T12:05:45;3.25;;;1.98;;
78916;SDS011;68315;48.608;11.436;2023-08-31T12:08:12;3.83;;;2.30;;
78916;SDS011;68315;48.608;11.436;2023-08-31T12:10:40;6.60;;;2.80;;
78916;SDS011;68315;48.608;11.436;2023-08-31T12:13:09;3.00;;;2.20;;
78916;SDS011;68315;48.608;11.436;2023-08-31T12:15:35;4.57;;;2.40;;
78916;SDS011;68315;48.608;11.436;2023-08-31T12:18:10;5.70;;;2.50;;
78916;SDS011;68315;48.608;11.436;2023-08-31T12:20:42;4.53;;;1.95;;
78916;SDS011;68315;48.608;11.436;2023-08-31T12:23:17;3.33;;;1.92;;
78916;SDS011;68315;48.608;11.436;2023-08-31T12:25:48;4.47;;;2.80;;
78916;SDS011;68315;48.608;11.436;2023-08-31T12:28:14;3.67;;;2.10;;
78916;SDS011;68315;48.608;11.436;2023-08-31T12:30:41;3.25;;;2.05;;
78916;SDS011;68315;48.608;11.436;2023-08-31T12:33:09;4.53;;;1.83;;
78916;SDS011;68315;48.608;11.436;2023-08-31T12:35:34;4.75;;;1.92;;
78916;SDS011;68315;48.608;11.436;2023-08-31T12:38:00;3.60;;;2.08;;
78916;SDS011;68315;48.608;11.436;2023-08-31T12:40:25;4.43;;;2.20;;
78916;SDS011;68315;48.608;11.436;2023-08-31T12:42:50;4.35;;;2.40;;
78916;SDS011;68315;48.608;11.436;2023-08-31T12:45:15;5.90;;;2.10;;
78916;SDS011;68315;48.608;11.436;2023-08-31T12:47:43;5.80;;;2.13;;
78916;SDS011;68315;48.608;11.436;2023-08-31T12:50:09;4.30;;;2.22;;
78916;SDS011;68315;48.608;11.436;2023-08-31T12:52:34;3.70;;;2.28;;
78916;SDS011;68315;48.608;11.436;2023-08-31T12:55:00;4.07;;;2.10;;
78916;SDS011;68315;48.608;11.436;2023-08-31T12:57:26;3.27;;;2.03;;
78916;SDS011;68315;48.608;11.436;2023-08-31T12:59:51;2.35;;;1.88;;
78916;SDS011;68315;48.608;11.436;2023-08-31T13:02:16;4.87;;;2.30;;
78916;SDS011;68315;48.608;11.436;2023-08-31T13:04:41;3.40;;;1.90;;
78916;SDS011;68315;48.608;11.436;2023-08-31T13:07:07;4.03;;;2.13;;
78916;SDS011;68315;48.608;11.436;2023-08-31T13:09:32;3.83;;;2.10;;
78916;SDS011;68315;48.608;11.436;2023-08-31T13:11:57;2.30;;;1.67;;
78916;SDS011;68315;48.608;11.436;2023-08-31T13:14:22;2.67;;;1.63;;
78916;SDS011;68315;48.608;11.436;2023-08-31T13:16:48;4.50;;;1.77;;
78916;SDS011;68315;48.608;11.436;2023-08-31T13:19:13;3.07;;;1.63;;
78916;SDS011;68315;48.608;11.436;2023-08-31T13:21:39;2.20;;;1.70;;
78916;SDS011;68315;48.608;11.436;2023-08-31T13:24:04;3.37;;;1.90;;
78916;SDS011;68315;48.608;11.436;2023-08-31T13:26:29;3.88;;;1.85;;
78916;SDS011;68315;48.608;11.436;2023-08-31T13:28:55;3.67;;;1.97;;
78916;SDS011;68315;48.608;11.436;2023-08-31T13:31:20;3.28;;;1.80;;
78916;SDS011;68315;48.608;11.436;2023-08-31T13:33:46;3.37;;;2.27;;
78916;SDS011;68315;48.608;11.436;2023-08-31T13:36:11;4.20;;;1.70;;
78916;SDS011;68315;48.608;11.436;2023-08-31T13:38:36;4.68;;;1.83;;
78916;SDS011;68315;48.608;11.436;2023-08-31T13:41:02;3.33;;;1.77;;
78916;SDS011;68315;48.608;11.436;2023-08-31T13:43:28;3.72;;;2.15;;
78916;SDS011;68315;48.608;11.436;2023-08-31T13:45:53;2.57;;;2.00;;
78916;SDS011;68315;48.608;11.436;2023-08-31T13:48:18;3.33;;;1.95;;
78916;SDS011;68315;48.608;11.436;2023-08-31T13:50:45;4.53;;;2.20;;
78916;SDS011;68315;48.608;11.436;2023-08-31T13:53:11;1.92;;;1.45;;
78916;SDS011;68315;48.608;11.436;2023-08-31T13:55:36;3.60;;;1.87;;
78916;SDS011;68315;48.608;11.436;2023-08-31T13:58:05;3.97;;;2.15;;
78916;SDS011;68315;48.608;11.436;2023-08-31T14:00:32;4.00;;;1.85;;
78916;SDS011;68315;48.608;11.436;2023-08-31T14:02:57;6.05;;;2.13;;
78916;SDS011;68315;48.608;11.436;2023-08-31T14:05:27;3.42;;;1.70;;
78916;SDS011;68315;48.608;11.436;2023-08-31T14:07:52;3.60;;;1.87;;
78916;SDS011;68315;48.608;11.436;2023-08-31T14:10:17;3.03;;;1.90;;
78916;SDS011;68315;48.608;11.436;2023-08-31T14:12:42;4.53;;;1.77;;
78916;SDS011;68315;48.608;11.436;2023-08-31T14:15:11;4.13;;;1.92;;
78916;SDS011;68315;48.608;11.436;2023-08-31T14:17:37;3.17;;;1.85;;
78916;SDS011;68315;48.608;11.436;2023-08-31T14:20:02;4.47;;;2.10;;
78916;SDS011;68315;48.608;11.436;2023-08-31T14:22:31;5.55;;;2.30;;
78916;SDS011;68315;48.608;11.436;2023-08-31T14:24:56;3.25;;;2.03;;
78916;SDS011;68315;48.608;11.436;2023-08-31T14:27:21;5.10;;;2.10;;
78916;SDS011;68315;48.608;11.436;2023-08-31T14:29:48;3.47;;;1.80;;
78916;SDS011;68315;48.608;11.436;2023-08-31T14:32:13;3.83;;;1.92;;
78916;SDS011;68315;48.608;11.436;2023-08-31T14:34:39;3.38;;;2.00;;
78916;SDS011;68315;48.608;11.436;2023-08-31T14:37:04;4.10;;;2.53;;
78916;SDS011;68315;48.608;11.436;2023-08-31T14:39:29;2.90;;;1.55;;
78916;SDS011;68315;48.608;11.436;2023-08-31T14:41:58;2.50;;;1.75;;
78916;SDS011;68315;48.608;11.436;2023-08-31T14:44:24;3.22;;;1.77;;
78916;SDS011;68315;48.608;11.436;2023-08-31T14:46:50;2.50;;;1.70;;
78916;SDS011;68315;48.608;11.436;2023-08-31T14:49:15;2.53;;;1.90;;